Time;durP1;ratioP1;P1;durP2;ratioP2;P2;SDS_P1;SDS_P2;PMS_P1;PMS_P2;Temp;Humidity;BMP_temperature;BMP_pressure;BME280_temperature;BME280_humidity;BME280_pressure;Samples;Min_cycle;Max_cycle;Signal;HPM_P1;HPM_P2
2021/06/20 00:01:42;;;;;;;18.58;9.13;;;;;;;21.12;52.76;100335.94;4405279;32;20045;-77
2021/06/20 00:04:08;;;;;;;19.98;9.23;;;;;;;21.13;52.73;100331.75;4405529;32;20046;-74
2021/06/20 00:06:36;;;;;;;21.15;10.95;;;;;;;21.18;52.82;100336.72;4407276;32;20515;-78
2021/06/20 00:09:06;;;;;;;21.27;9.93;;;;;;;21.26;53.09;100323.41;4405709;32;20424;-76
2021/06/20 00:11:33;;;;;;;23.67;9.70;;;;;;;21.40;52.87;100327.31;4405085;32;21177;-75
2021/06/20 00:14:00;;;;;;;18.48;8.82;;;;;;;21.41;53.17;100329.66;4406980;32;20056;-74
2021/06/20 00:16:26;;;;;;;21.30;9.82;;;;;;;21.18;53.25;100335.94;4404484;32;20411;-78
2021/06/20 00:18:52;;;;;;;20.60;9.07;;;;;;;21.16;53.72;100332.78;4406423;32;20127;-75
2021/06/20 00:21:19;;;;;;;20.20;9.98;;;;;;;21.23;52.98;100344.50;4406255;32;20042;-76
2021/06/20 00:23:46;;;;;;;19.67;10.05;;;;;;;21.20;53.88;100344.78;4406722;32;20475;-73
2021/06/20 00:26:13;;;;;;;18.08;9.15;;;;;;;21.04;53.31;100339.81;4404277;32;20130;-76
2021/06/20 00:28:39;;;;;;;22.20;10.60;;;;;;;20.99;54.08;100340.62;4404745;32;20095;-77
2021/06/20 00:31:06;;;;;;;19.20;9.80;;;;;;;21.09;53.32;100339.06;4406186;32;20073;-72
2021/06/20 00:33:31;;;;;;;23.02;10.25;;;;;;;21.03;53.60;100333.34;4403955;32;20062;-73
2021/06/20 00:35:58;;;;;;;21.65;10.32;;;;;;;21.08;53.44;100334.63;4406406;32;20426;-75
2021/06/20 00:38:25;;;;;;;21.90;9.25;;;;;;;21.18;53.63;100331.00;4392013;32;20035;-75
2021/06/20 00:40:50;;;;;;;23.58;10.90;;;;;;;21.12;53.84;100333.06;4401571;32;20097;-78
2021/06/20 00:43:16;;;;;;;24.63;10.20;;;;;;;20.94;54.10;100322.16;4408948;32;20038;-76
2021/06/20 00:45:42;;;;;;;20.42;9.98;;;;;;;20.86;54.36;100320.31;4404400;32;20066;-78
2021/06/20 00:48:08;;;;;;;19.95;10.07;;;;;;;20.78;54.08;100322.91;4389981;32;20078;-76
2021/06/20 00:50:34;;;;;;;21.87;11.10;;;;;;;20.83;54.05;100316.38;4407503;32;20065;-77
2021/06/20 00:53:01;;;;;;;19.80;10.00;;;;;;;20.90;54.01;100321.59;4406994;32;20083;-77
2021/06/20 00:55:30;;;;;;;22.65;10.38;;;;;;;21.05;54.06;100319.28;4408493;32;20169;-73
2021/06/20 00:57:59;;;;;;;21.00;9.98;;;;;;;21.14;53.62;100321.87;4405116;32;20109;-74
2021/06/20 01:00:25;;;;;;;19.20;9.85;;;;;;;21.26;53.47;100323.41;4402965;32;20054;-76
2021/06/20 01:02:54;;;;;;;21.50;9.35;;;;;;;21.13;53.16;100311.72;4404585;32;20100;-77
2021/06/20 01:05:20;;;;;;;16.67;9.70;;;;;;;21.22;52.81;100313.53;4404546;32;20026;-75
2021/06/20 01:07:51;;;;;;;17.20;9.52;;;;;;;21.23;52.88;100313.00;4406480;32;20042;-76
2021/06/20 01:10:19;;;;;;;17.70;9.35;;;;;;;21.34;53.15;100313.00;4401733;32;20516;-77
2021/06/20 01:12:45;;;;;;;23.85;9.68;;;;;;;21.16;52.65;100307.03;4403419;32;20034;-76
2021/06/20 01:15:12;;;;;;;19.87;9.38;;;;;;;21.21;53.40;100307.06;4400849;32;20099;-74
2021/06/20 01:17:39;;;;;;;19.45;10.43;;;;;;;21.26;53.57;100306.25;4402992;32;21218;-76
2021/06/20 01:20:08;;;;;;;22.00;10.23;;;;;;;21.26;53.72;100297.66;4404501;32;20107;-73
2021/06/20 01:22:36;;;;;;;21.77;10.60;;;;;;;21.30;53.60;100289.59;4405781;32;20489;-77
2021/06/20 01:25:07;;;;;;;17.10;10.00;;;;;;;21.21;54.06;100289.88;4403956;32;20709;-76
2021/06/20 01:27:36;;;;;;;16.30;10.30;;;;;;;21.28;52.98;100289.34;4403020;32;20068;-76
2021/06/20 01:30:04;;;;;;;22.17;10.82;;;;;;;21.12;53.26;100283.63;4403784;32;20060;-77
2021/06/20 01:32:30;;;;;;;20.80;10.18;;;;;;;20.85;54.19;100273.75;4403844;32;20134;-75
2021/06/20 01:34:56;;;;;;;19.52;10.30;;;;;;;20.85;54.28;100279.47;4400727;32;20031;-77
2021/06/20 01:37:22;;;;;;;18.52;10.32;;;;;;;20.69;54.48;100273.75;4403159;32;20072;-75
2021/06/20 01:39:48;;;;;;;21.35;9.65;;;;;;;20.77;54.67;100272.69;4401918;32;20739;-75
2021/06/20 01:42:15;;;;;;;21.40;10.52;;;;;;;20.76;53.89;100276.88;4402752;32;20073;-76
2021/06/20 01:47:22;;;;;;;16.98;10.48;;;;;;;21.52;52.98;100263.00;4428926;31;1098216;-73
2021/06/20 01:49:48;;;;;;;21.60;9.10;;;;;;;21.52;52.98;100263.00;4448695;32;20138;-76
2021/06/20 01:52:18;;;;;;;21.87;11.00;;;;;;;20.72;52.66;100252.69;4450351;32;20116;-77
2021/06/20 01:54:51;;;;;;;17.42;9.73;;;;;;;20.93;52.88;100251.13;4450237;32;20092;-78
2021/06/20 01:57:18;;;;;;;26.23;10.27;;;;;;;20.70;53.33;100252.44;4447247;32;20037;-73
2021/06/20 01:59:45;;;;;;;16.77;10.43;;;;;;;20.83;53.29;100238.41;4447867;32;20084;-75
2021/06/20 02:02:11;;;;;;;22.13;10.38;;;;;;;20.65;53.24;100238.94;4446647;32;20053;-75
2021/06/20 02:04:37;;;;;;;20.98;10.40;;;;;;;20.37;53.86;100235.28;4447867;32;20107;-75
2021/06/20 02:07:03;;;;;;;16.05;9.70;;;;;;;20.46;53.94;100241.50;4443914;32;20037;-74
2021/06/20 02:09:28;;;;;;;16.85;10.23;;;;;;;20.60;53.34;100231.91;4446565;32;20406;-74
2021/06/20 02:11:54;;;;;;;19.52;10.50;;;;;;;20.51;53.03;100232.16;4440896;32;20105;-71
2021/06/20 02:14:20;;;;;;;16.95;9.90;;;;;;;20.54;53.36;100234.00;4450530;32;20121;-74
2021/06/20 02:16:46;;;;;;;19.98;9.90;;;;;;;20.57;53.44;100227.22;4445997;32;20070;-74
2021/06/20 02:19:11;;;;;;;15.55;10.02;;;;;;;20.60;53.71;100217.63;4445252;32;20045;-75
2021/06/20 02:21:37;;;;;;;18.27;10.48;;;;;;;20.59;53.86;100221.75;4447416;32;20129;-75
2021/06/20 02:24:03;;;;;;;28.27;10.25;;;;;;;20.56;53.35;100219.19;4442653;32;20399;-75
2021/06/20 02:26:29;;;;;;;19.15;10.45;;;;;;;20.63;53.33;100221.50;4448352;32;20123;-76
2021/06/20 02:28:54;;;;;;;17.77;10.25;;;;;;;20.69;52.97;100214.50;4441654;32;20085;-79
2021/06/20 02:31:20;;;;;;;20.65;9.95;;;;;;;20.76;53.04;100205.38;4441520;32;20022;-74
2021/06/20 02:33:46;;;;;;;18.58;11.00;;;;;;;20.71;52.79;100205.41;4447897;32;20162;-78
2021/06/20 02:36:12;;;;;;;16.17;9.77;;;;;;;20.71;53.39;100205.41;4442825;32;20076;-76
2021/06/20 02:38:38;;;;;;;16.50;9.70;;;;;;;20.75;52.94;100208.75;4444763;32;20163;-74
2021/06/20 02:41:04;;;;;;;15.25;9.60;;;;;;;20.71;52.24;100211.88;4446474;32;20477;-75
2021/06/20 02:43:30;;;;;;;19.15;9.98;;;;;;;20.79;52.52;100212.91;4448241;32;20077;-72
2021/06/20 02:45:56;;;;;;;14.68;9.30;;;;;;;20.87;52.16;100204.59;4443003;32;20096;-72
2021/06/20 02:48:22;;;;;;;16.55;10.02;;;;;;;20.83;51.39;100212.66;4448067;32;20045;-72
2021/06/20 02:50:48;;;;;;;17.23;9.27;;;;;;;20.78;52.11;100207.72;4445437;32;20029;-76
2021/06/20 02:53:14;;;;;;;18.77;9.50;;;;;;;20.82;52.01;100211.88;4446142;32;20084;-75
2021/06/20 02:55:39;;;;;;;17.25;9.90;;;;;;;20.94;51.94;100219.16;4446324;32;20900;-73
2021/06/20 02:58:05;;;;;;;18.08;10.43;;;;;;;20.97;51.93;100218.12;4439828;32;20050;-77
2021/06/20 03:00:30;;;;;;;18.62;10.70;;;;;;;20.94;52.31;100219.16;4434332;32;20102;-75
2021/06/20 03:02:56;;;;;;;17.17;11.23;;;;;;;20.84;51.74;100212.16;4436974;32;20050;-73
2021/06/20 03:05:22;;;;;;;20.52;12.65;;;;;;;21.02;52.07;100210.84;4438787;32;20105;-76
2021/06/20 03:07:47;;;;;;;27.55;13.80;;;;;;;20.92;52.59;100206.63;4440271;32;20041;-73
2021/06/20 03:10:13;;;;;;;21.67;14.20;;;;;;;20.83;52.16;100193.41;4430171;32;20479;-77
2021/06/20 03:12:39;;;;;;;22.65;14.20;;;;;;;20.81;52.33;100196.03;4434864;32;20096;-75
2021/06/20 03:15:06;;;;;;;23.80;15.18;;;;;;;20.67;52.40;100197.06;4438944;32;20053;-76
2021/06/20 03:17:31;;;;;;;30.58;15.70;;;;;;;20.73;52.77;100195.00;4431967;32;20086;-74
2021/06/20 03:19:57;;;;;;;27.05;16.25;;;;;;;20.70;52.93;100201.75;4434500;32;20081;-75
2021/06/20 03:22:23;;;;;;;20.42;13.65;;;;;;;21.01;52.25;100200.69;4429940;32;20401;-74
2021/06/20 03:24:51;;;;;;;29.67;16.23;;;;;;;21.01;52.23;100204.31;4436793;32;20048;-75
2021/06/20 03:27:18;;;;;;;26.27;16.33;;;;;;;21.16;51.62;100204.03;4437744;32;20084;-75
2021/06/20 03:29:46;;;;;;;27.48;16.48;;;;;;;21.16;51.67;100209.75;4432371;32;20104;-74
2021/06/20 03:32:13;;;;;;;26.42;15.13;;;;;;;20.99;51.69;100204.06;4432437;32;20440;-75
2021/06/20 03:34:39;;;;;;;25.75;15.98;;;;;;;21.00;51.39;100207.72;4431193;32;20396;-75
2021/06/20 03:37:05;;;;;;;23.33;15.70;;;;;;;20.99;51.47;100189.75;4439451;32;20101;-75
2021/06/20 03:39:32;;;;;;;25.12;15.02;;;;;;;20.89;51.38;100182.72;4432843;32;20079;-72
2021/06/20 03:41:58;;;;;;;22.73;14.60;;;;;;;20.65;51.34;100190.31;4434134;32;20354;-73
2021/06/20 03:44:24;;;;;;;25.37;15.13;;;;;;;20.79;51.41;100192.09;4432874;32;20188;-78
2021/06/20 03:46:50;;;;;;;23.15;13.55;;;;;;;20.66;51.76;100180.44;4434348;32;20049;-76
2021/06/20 03:49:16;;;;;;;23.58;13.13;;;;;;;20.74;51.49;100182.22;4434246;32;20377;-74
2021/06/20 03:51:43;;;;;;;22.80;12.82;;;;;;;20.73;51.29;100180.69;4434265;32;20041;-74
2021/06/20 03:54:09;;;;;;;21.98;12.68;;;;;;;20.76;51.18;100188.22;4433625;32;20096;-72
2021/06/20 03:56:35;;;;;;;25.15;12.50;;;;;;;20.79;50.87;100192.91;4436882;32;20020;-74
2021/06/20 03:59:01;;;;;;;22.75;12.37;;;;;;;20.63;51.29;100193.69;4433945;32;20064;-72
2021/06/20 04:01:27;;;;;;;20.58;12.43;;;;;;;20.74;51.27;100190.06;4433261;32;20038;-77
2021/06/20 04:03:53;;;;;;;17.20;11.00;;;;;;;20.86;51.01;100186.63;4433445;32;20064;-74
2021/06/20 04:06:19;;;;;;;18.50;10.77;;;;;;;20.70;51.03;100187.44;4433727;32;20076;-74
2021/06/20 04:08:45;;;;;;;21.00;12.37;;;;;;;20.72;50.67;100193.44;4430323;32;20137;-73
2021/06/20 04:11:11;;;;;;;18.80;11.95;;;;;;;20.75;50.85;100195.25;4435720;32;20041;-76
2021/06/20 04:13:37;;;;;;;17.27;11.55;;;;;;;20.75;51.46;100188.75;4432869;32;20083;-76
2021/06/20 04:16:03;;;;;;;20.50;12.45;;;;;;;20.65;51.00;100199.66;4437412;32;20049;-73
2021/06/20 04:18:28;;;;;;;22.08;11.95;;;;;;;20.70;50.73;100203.81;4430799;32;20089;-73
2021/06/20 04:20:54;;;;;;;17.67;10.95;;;;;;;20.70;51.15;100198.88;4434639;32;20077;-77
2021/06/20 04:23:20;;;;;;;25.00;12.73;;;;;;;20.73;50.85;100206.44;4433375;32;20049;-74
2021/06/20 04:25:46;;;;;;;22.80;13.75;;;;;;;20.71;50.73;100206.16;4432524;32;20511;-75
2021/06/20 04:28:13;;;;;;;23.55;13.55;;;;;;;20.65;51.19;100191.09;4433995;32;20073;-76
2021/06/20 04:30:38;;;;;;;23.80;13.10;;;;;;;20.74;51.04;100199.41;4434787;32;20807;-73
2021/06/20 04:33:04;;;;;;;24.50;13.90;;;;;;;20.73;51.31;100200.69;4433396;32;20147;-76
2021/06/20 04:35:30;;;;;;;21.73;13.38;;;;;;;20.79;51.04;100212.12;4434159;32;20425;-77
2021/06/20 04:37:56;;;;;;;27.23;13.73;;;;;;;20.76;51.45;100207.44;4433290;32;20131;-74
2021/06/20 04:40:23;;;;;;;20.90;12.73;;;;;;;20.77;51.04;100206.16;4434342;32;20426;-74
2021/06/20 04:43:04;;;;;;;22.83;12.82;;;;;;;20.92;50.96;100204.56;4432579;32;20117;-77
2021/06/20 04:45:29;;;;;;;21.80;13.50;;;;;;;21.06;50.73;100206.41;4436194;32;20536;-76
2021/06/20 04:47:55;;;;;;;22.95;13.10;;;;;;;20.86;51.70;100198.06;4440200;32;20026;-74
2021/06/20 04:50:21;;;;;;;21.37;13.05;;;;;;;20.99;51.34;100197.56;4433705;32;20073;-76
2021/06/20 04:52:47;;;;;;;20.17;11.45;;;;;;;21.00;51.29;100187.69;4433841;32;20045;-74
2021/06/20 04:55:14;;;;;;;16.08;11.10;;;;;;;21.07;50.85;100187.13;4432350;32;20740;-76
2021/06/20 04:57:40;;;;;;;15.77;9.75;;;;;;;21.06;50.60;100192.09;4433275;32;20398;-74
2021/06/20 05:00:08;;;;;;;18.20;10.90;;;;;;;21.07;50.13;100185.06;4433025;32;20440;-74
2021/06/20 05:02:34;;;;;;;22.10;11.68;;;;;;;21.30;50.20;100192.25;4430235;32;20590;-76
2021/06/20 05:05:01;;;;;;;22.42;11.40;;;;;;;21.10;50.92;100197.53;4434220;32;20314;-77
2021/06/20 05:07:27;;;;;;;16.02;10.40;;;;;;;21.37;50.70;100185.22;4432529;32;20081;-77
2021/06/20 05:09:52;;;;;;;16.52;11.02;;;;;;;21.29;50.73;100181.34;4434902;32;20761;-77
2021/06/20 05:12:18;;;;;;;19.15;10.38;;;;;;;21.21;50.50;100180.34;4426594;32;20029;-76
2021/06/20 05:14:46;;;;;;;18.75;11.48;;;;;;;21.20;50.40;100188.12;4437584;32;20137;-74
2021/06/20 05:17:14;;;;;;;22.40;10.80;;;;;;;21.40;50.37;100192.75;4432487;32;20459;-77
2021/06/20 05:19:41;;;;;;;16.92;10.40;;;;;;;21.29;50.53;100195.66;4435245;32;20564;-77
2021/06/20 05:22:09;;;;;;;17.02;9.77;;;;;;;21.34;50.11;100195.66;4434027;32;20453;-76
2021/06/20 05:24:35;;;;;;;18.92;10.98;;;;;;;21.50;49.88;100189.06;4432809;32;20553;-75
2021/06/20 05:27:00;;;;;;;20.30;11.65;;;;;;;21.41;50.49;100188.59;4436051;32;20033;-73
2021/06/20 05:29:26;;;;;;;16.80;11.25;;;;;;;21.53;49.78;100188.03;4433017;32;20057;-77
2021/06/20 05:31:52;;;;;;;20.73;11.48;;;;;;;21.49;50.37;100187.53;4432568;32;20366;-75
2021/06/20 05:34:17;;;;;;;21.80;11.82;;;;;;;21.57;50.26;100199.22;4430863;32;20052;-73
2021/06/20 05:36:44;;;;;;;19.45;11.10;;;;;;;21.55;50.19;100196.09;4437188;32;20072;-76
2021/06/20 05:39:09;;;;;;;17.98;10.25;;;;;;;21.57;50.07;100197.09;4434602;32;20126;-74
2021/06/20 05:41:35;;;;;;;20.02;11.98;;;;;;;21.62;49.79;100193.44;4433153;32;20041;-77
2021/06/20 05:44:01;;;;;;;19.60;11.48;;;;;;;21.75;50.02;100189.25;4434911;32;20052;-76
2021/06/20 05:46:27;;;;;;;17.02;11.88;;;;;;;21.80;49.47;100197.03;4433638;32;20080;-76
2021/06/20 05:48:53;;;;;;;21.33;11.95;;;;;;;21.68;49.92;100197.06;4434673;32;20085;-77
2021/06/20 05:51:19;;;;;;;18.30;11.65;;;;;;;21.74;49.62;100184.81;4432945;32;20073;-74
2021/06/20 05:53:45;;;;;;;19.87;12.20;;;;;;;21.83;49.66;100193.09;4431397;32;20068;-73
2021/06/20 05:56:11;;;;;;;19.73;12.23;;;;;;;21.51;49.59;100192.72;4437133;32;20488;-74
2021/06/20 05:58:37;;;;;;;23.83;12.60;;;;;;;21.68;49.68;100191.34;4430319;32;20436;-72
2021/06/20 06:01:03;;;;;;;20.27;12.48;;;;;;;21.78;50.32;100196.78;4429824;32;20494;-74
2021/06/20 06:03:30;;;;;;;22.30;12.75;;;;;;;22.00;49.51;100188.06;4434559;32;20523;-76
2021/06/20 06:05:56;;;;;;;22.80;12.27;;;;;;;22.06;49.04;100194.53;4430362;32;20088;-76
2021/06/20 06:08:22;;;;;;;18.80;10.95;;;;;;;21.91;49.00;100192.03;4433316;32;20073;-77
2021/06/20 06:10:48;;;;;;;21.15;11.70;;;;;;;21.88;48.48;100198.03;4432593;32;21477;-75
2021/06/20 06:13:14;;;;;;;18.35;11.00;;;;;;;21.96;48.67;100202.66;4435550;32;20451;-73
2021/06/20 06:15:40;;;;;;;18.33;11.70;;;;;;;22.05;48.88;100201.56;4429338;32;20025;-76
2021/06/20 06:18:05;;;;;;;22.50;11.52;;;;;;;22.11;48.86;100191.62;4434338;32;20037;-74
2021/06/20 06:20:31;;;;;;;19.50;11.77;;;;;;;22.17;48.44;100208.78;4430847;32;20064;-77
2021/06/20 06:22:57;;;;;;;17.25;10.65;;;;;;;22.21;48.43;100209.28;4436465;32;20379;-74
2021/06/20 06:25:23;;;;;;;20.00;11.02;;;;;;;22.44;48.10;100216.41;4432372;32;20075;-74
2021/06/20 06:27:49;;;;;;;19.50;10.52;;;;;;;22.45;48.25;100210.13;4436880;32;20046;-74
2021/06/20 06:30:15;;;;;;;18.77;11.93;;;;;;;22.39;47.88;100212.25;4429737;32;20103;-74
2021/06/20 06:32:43;;;;;;;18.30;11.25;;;;;;;21.89;48.01;100213.91;4429321;32;20377;-73
2021/06/20 06:35:10;;;;;;;17.90;11.35;;;;;;;22.46;47.61;100205.19;4434297;32;20394;-75
2021/06/20 06:37:35;;;;;;;20.65;11.25;;;;;;;22.13;47.62;100205.41;4437119;32;20108;-76
2021/06/20 06:40:03;;;;;;;20.10;11.15;;;;;;;22.18;47.89;100207.47;4437455;32;20511;-74
2021/06/20 06:42:29;;;;;;;23.77;11.77;;;;;;;22.48;47.58;100208.28;4433217;32;20033;-77
2021/06/20 06:44:57;;;;;;;15.10;10.45;;;;;;;22.62;47.41;100210.81;4439204;32;20158;-72
2021/06/20 06:47:24;;;;;;;18.67;10.70;;;;;;;22.67;47.11;100209.97;4438730;32;20485;-72
2021/06/20 06:49:50;;;;;;;16.10;10.65;;;;;;;22.62;47.22;100219.41;4436027;32;20519;-79
2021/06/20 06:52:18;;;;;;;21.30;10.98;;;;;;;22.49;47.84;100218.47;4433790;32;20075;-74
2021/06/20 06:54:50;;;;;;;16.33;9.85;;;;;;;22.70;47.35;100213.87;4434196;32;20037;-75
2021/06/20 06:57:18;;;;;;;15.45;10.85;;;;;;;22.86;46.74;100218.69;4432432;32;20357;-77
2021/06/20 06:59:44;;;;;;;14.25;10.25;;;;;;;22.79;46.48;100217.16;4432177;32;20076;-74
2021/06/20 07:02:10;;;;;;;17.70;11.15;;;;;;;22.92;46.32;100223.03;4436097;32;20042;-74
2021/06/20 07:04:36;;;;;;;16.70;11.12;;;;;;;23.16;45.86;100225.94;4433332;32;20105;-75
2021/06/20 07:07:02;;;;;;;18.52;11.30;;;;;;;23.00;46.26;100220.34;4439680;32;20033;-76
2021/06/20 07:09:28;;;;;;;20.52;11.43;;;;;;;22.89;46.60;100223.34;4431603;32;20423;-75
2021/06/20 07:11:53;;;;;;;19.20;12.00;;;;;;;23.05;47.00;100220.31;4431699;32;20048;-74
2021/06/20 07:14:20;;;;;;;20.35;11.15;;;;;;;23.13;46.89;100221.25;4434811;32;20041;-74
2021/06/20 07:16:45;;;;;;;20.23;12.07;;;;;;;23.28;47.25;100224.53;4435519;32;20124;-76
2021/06/20 07:19:11;;;;;;;18.08;10.88;;;;;;;23.37;46.39;100211.88;4432370;32;20029;-73
2021/06/20 07:21:37;;;;;;;14.68;10.60;;;;;;;23.61;45.18;100208.97;4432267;32;20377;-75
2021/06/20 07:24:03;;;;;;;16.58;11.63;;;;;;;23.40;45.81;100216.56;4438007;32;20033;-73
2021/06/20 07:26:29;;;;;;;18.33;12.13;;;;;;;23.56;45.26;100218.44;4435597;32;20414;-77
2021/06/20 07:28:56;;;;;;;19.08;11.57;;;;;;;23.40;45.58;100211.59;4435243;32;20099;-78
2021/06/20 07:31:22;;;;;;;18.85;11.60;;;;;;;23.48;45.56;100209.66;4435448;32;20058;-73
2021/06/20 07:33:48;;;;;;;22.67;11.80;;;;;;;23.55;45.51;100208.28;4433652;32;20060;-74
2021/06/20 07:36:15;;;;;;;21.70;10.95;;;;;;;23.44;45.48;100217.03;4435634;32;20462;-76
2021/06/20 07:38:43;;;;;;;16.10;10.82;;;;;;;23.54;44.79;100218.22;4433032;32;20065;-74
2021/06/20 07:41:08;;;;;;;25.58;11.80;;;;;;;23.76;45.06;100205.66;4431557;32;20065;-76
2021/06/20 07:43:36;;;;;;;26.15;11.20;;;;;;;23.56;44.95;100206.94;4437591;32;20075;-75
2021/06/20 07:46:02;;;;;;;17.33;11.35;;;;;;;23.86;44.54;100218.31;4436875;32;20116;-75
2021/06/20 07:48:28;;;;;;;17.05;10.05;;;;;;;23.52;44.56;100215.09;4437467;32;20415;-74
2021/06/20 07:50:55;;;;;;;15.75;10.35;;;;;;;23.46;44.83;100223.78;4433950;32;20541;-74
2021/06/20 07:53:21;;;;;;;16.00;9.98;;;;;;;23.27;44.94;100220.09;4435535;32;20050;-76
2021/06/20 07:55:47;;;;;;;20.65;10.38;;;;;;;23.42;44.63;100219.66;4437885;32;20045;-75
2021/06/20 07:58:13;;;;;;;17.30;10.13;;;;;;;23.57;44.79;100224.97;4437056;32;20088;-72
2021/06/20 08:00:39;;;;;;;13.85;9.27;;;;;;;23.45;44.53;100222.25;4435160;32;20033;-76
2021/06/20 08:03:05;;;;;;;26.33;11.43;;;;;;;23.70;43.44;100216.44;4438286;32;20458;-75
2021/06/20 08:05:31;;;;;;;15.27;9.68;;;;;;;23.93;43.62;100227.09;4437265;32;20127;-75
2021/06/20 08:07:56;;;;;;;16.60;10.30;;;;;;;24.00;43.51;100223.66;4435661;32;20477;-73
2021/06/20 08:10:23;;;;;;;15.93;9.23;;;;;;;24.09;43.28;100229.00;4432312;32;20049;-72
2021/06/20 08:12:48;;;;;;;15.40;9.65;;;;;;;24.09;42.21;100231.88;4433482;32;20080;-73
2021/06/20 08:15:14;;;;;;;17.90;10.02;;;;;;;24.37;42.17;100234.34;4434182;32;20146;-75
2021/06/20 08:17:41;;;;;;;18.27;9.35;;;;;;;24.36;41.97;100233.53;4435768;32;20442;-73
2021/06/20 08:20:11;;;;;;;14.95;9.15;;;;;;;24.43;42.21;100232.16;4431833;32;20160;-75
2021/06/20 08:22:37;;;;;;;15.10;8.55;;;;;;;24.64;41.67;100231.03;4436818;32;20121;-76
2021/06/20 08:25:06;;;;;;;15.57;8.23;;;;;;;24.49;41.91;100227.09;4433453;32;20188;-77
2021/06/20 08:27:32;;;;;;;15.20;9.05;;;;;;;24.66;41.15;100222.63;4429968;32;20140;-75
2021/06/20 08:29:57;;;;;;;16.67;9.05;;;;;;;24.82;41.07;100224.44;4434210;32;20134;-75
2021/06/20 08:32:24;;;;;;;13.88;8.63;;;;;;;24.89;40.66;100223.81;4433750;32;20455;-74
2021/06/20 08:34:51;;;;;;;15.00;8.77;;;;;;;24.88;40.62;100222.25;4435639;32;20423;-77
2021/06/20 08:37:18;;;;;;;18.65;10.05;;;;;;;24.73;41.00;100226.97;4436891;32;20037;-76
2021/06/20 08:39:43;;;;;;;17.27;9.68;;;;;;;24.90;41.12;100222.47;4434306;32;20037;-73
2021/06/20 08:42:09;;;;;;;18.58;9.18;;;;;;;24.89;41.14;100220.16;4430345;32;20037;-76
2021/06/20 08:44:35;;;;;;;14.43;9.25;;;;;;;25.07;40.28;100222.94;4433322;32;20057;-73
2021/06/20 08:47:03;;;;;;;17.17;10.20;;;;;;;24.90;40.38;100225.34;4439086;32;20054;-75
2021/06/20 08:49:31;;;;;;;15.57;7.82;;;;;;;25.18;39.56;100224.84;4434172;32;20079;-73
2021/06/20 08:51:59;;;;;;;15.88;8.90;;;;;;;25.32;39.59;100217.81;4435025;32;20072;-73
2021/06/20 08:54:25;;;;;;;13.40;8.25;;;;;;;25.37;39.39;100214.81;4432350;32;20199;-73
2021/06/20 08:56:51;;;;;;;15.82;8.63;;;;;;;25.56;39.21;100211.03;4434945;32;20029;-74
2021/06/20 08:59:20;;;;;;;14.90;8.57;;;;;;;25.57;38.75;100209.69;4435735;32;20029;-76
2021/06/20 09:01:46;;;;;;;11.73;8.27;;;;;;;25.77;38.64;100206.13;4432539;32;20702;-74
2021/06/20 09:04:27;;;;;;;13.38;8.10;;;;;;;25.82;39.22;100214.66;4433939;32;20033;-74
2021/06/20 09:06:57;;;;;;;20.75;9.23;;;;;;;26.41;36.97;100216.72;4433569;32;20102;-73
2021/06/20 09:09:28;;;;;;;13.13;8.38;;;;;;;26.51;37.52;100219.91;4431855;32;20052;-74
2021/06/20 09:12:05;;;;;;;20.58;10.23;;;;;;;27.11;36.56;100223.34;4434129;32;20097;-74
2021/06/20 09:14:39;;;;;;;18.67;8.05;;;;;;;26.91;37.11;100222.03;4431503;32;20056;-77
2021/06/20 09:17:05;;;;;;;11.00;7.60;;;;;;;26.87;36.94;100223.72;4432564;32;20096;-77
2021/06/20 09:19:33;;;;;;;16.67;8.55;;;;;;;27.08;35.63;100228.16;4432740;32;20378;-73
2021/06/20 09:22:01;;;;;;;21.30;8.75;;;;;;;27.36;35.29;100227.41;4433572;32;20086;-77
2021/06/20 09:24:28;;;;;;;14.70;8.10;;;;;;;27.56;34.45;100231.59;4435061;32;20336;-73
2021/06/20 09:26:55;;;;;;;15.13;8.90;;;;;;;27.63;34.22;100225.06;4432837;32;20100;-73
2021/06/20 09:29:41;;;;;;;15.70;8.98;;;;;;;28.13;33.63;100227.28;4437408;32;20746;-75
2021/06/20 09:32:10;;;;;;;11.88;8.45;;;;;;;28.53;32.49;100226.25;4430910;32;20037;-78
2021/06/20 09:34:51;;;;;;;13.88;8.63;;;;;;;28.54;32.53;100224.91;4431038;32;20398;-76
2021/06/20 09:37:18;;;;;;;15.48;8.57;;;;;;;28.25;32.47;100229.22;4432225;32;20042;-77
2021/06/20 09:39:44;;;;;;;15.77;8.98;;;;;;;28.49;32.73;100225.84;4428968;32;20104;-73
2021/06/20 09:42:14;;;;;;;16.85;8.25;;;;;;;28.43;32.59;100230.25;4435553;32;20073;-77
2021/06/20 09:44:43;;;;;;;15.35;7.45;;;;;;;29.05;32.00;100230.56;4435786;32;20740;-77
2021/06/20 09:47:12;;;;;;;9.77;7.72;;;;;;;29.13;30.60;100230.56;4434395;32;20442;-74
2021/06/20 09:49:39;;;;;;;13.18;7.75;;;;;;;29.63;30.27;100235.38;4435440;32;20086;-73
2021/06/20 09:52:06;;;;;;;13.27;7.15;;;;;;;29.16;30.84;100230.19;4432387;32;20459;-75
2021/06/20 09:54:35;;;;;;;13.90;8.07;;;;;;;29.19;30.41;100231.13;4434652;32;20061;-75
2021/06/20 09:57:02;;;;;;;10.80;7.25;;;;;;;28.96;29.73;100228.25;4430933;32;20037;-73
2021/06/20 09:59:31;;;;;;;16.50;8.32;;;;;;;29.37;30.06;100239.44;4431835;32;20127;-74
2021/06/20 10:02:13;;;;;;;13.43;7.37;;;;;;;29.86;30.10;100233.16;4431669;32;20077;-74
2021/06/20 10:04:40;;;;;;;12.50;7.57;;;;;;;29.95;29.02;100230.44;4436577;32;20093;-75
2021/06/20 10:07:09;;;;;;;12.75;6.87;;;;;;;30.06;28.79;100226.31;4431751;32;20108;-72
2021/06/20 10:09:36;;;;;;;14.27;7.43;;;;;;;30.15;28.35;100226.47;4432945;32;20517;-73
2021/06/20 10:12:04;;;;;;;11.40;6.95;;;;;;;30.49;27.63;100217.97;4437929;32;20046;-77
2021/06/20 10:14:30;;;;;;;12.50;7.62;;;;;;;30.67;27.51;100224.63;4439521;32;20025;-76
2021/06/20 10:17:05;;;;;;;10.38;6.70;;;;;;;30.57;28.28;100232.44;4435680;32;20037;-74
2021/06/20 10:19:31;;;;;;;;;;;;;;;30.91;26.99;100229.72;4434382;32;20350;-75
2021/06/20 10:22:06;;;;;;;15.50;7.05;;;;;;;31.06;26.93;100232.50;4436712;32;19937;-73
2021/06/20 10:30:17;;;;;;;10.55;6.10;;;;;;;30.91;25.64;100228.94;4439110;31;689376;-75
2021/06/20 10:32:45;;;;;;;10.90;6.05;;;;;;;30.91;25.64;100228.94;4451077;32;20124;-75
2021/06/20 10:37:54;;;;;;;14.77;6.60;;;;;;;32.03;24.85;100233.66;4429470;31;668474;-73
2021/06/20 10:42:57;;;;;;;10.65;6.28;;;;;;;32.45;24.40;100243.03;4437546;31;689064;-74
2021/06/20 10:48:20;;;;;;;13.55;6.50;;;;;;;32.46;24.55;100240.87;4431525;31;676371;-73
2021/06/20 10:50:48;;;;;;;6.65;5.40;;;;;;;32.46;24.55;100240.87;4455209;32;20068;-75
2021/06/20 10:53:15;;;;;;;8.82;6.20;;;;;;;32.24;24.46;100242.69;4446752;32;20076;-73
2021/06/20 10:58:29;;;;;;;7.82;6.18;;;;;;;33.26;22.45;100244.50;4430572;31;669919;-77
2021/06/20 11:01:15;;;;;;;10.00;5.82;;;;;;;33.26;22.45;100244.50;4446613;32;20075;-78
2021/06/20 11:03:46;;;;;;;9.80;6.12;;;;;;;32.97;23.29;100249.44;4434295;32;20056;-76
2021/06/20 11:06:14;;;;;;;8.23;6.03;;;;;;;33.14;22.73;100245.69;4435073;32;20121;-76
2021/06/20 11:11:22;;;;;;;8.45;5.90;;;;;;;33.62;22.07;100238.59;4441749;31;667336;-75
2021/06/20 11:14:02;;;;;;;9.95;5.12;;;;;;;33.62;22.07;100238.59;4451652;32;20105;-76
2021/06/20 11:24:29;;;;;;;11.02;5.50;;;;;;;33.61;21.61;100239.19;4445828;31;659104;-76
2021/06/20 11:29:48;;;;;;;8.48;5.75;;;;;;;33.92;21.53;100234.34;4422513;31;667195;-75
2021/06/20 11:37:35;;;;;;;10.07;5.68;;;;;;;33.73;21.52;100234.31;4435134;31;672073;-74
2021/06/20 11:42:49;;;;;;;8.52;6.40;;;;;;;33.11;22.19;100249.81;4425730;32;676200;-73
2021/06/20 11:47:53;;;;;;;11.25;5.75;;;;;;;32.99;22.30;100255.44;4416674;31;1355755;-76
2021/06/20 11:55:35;;;;;;;11.52;5.60;;;;;;;31.81;23.40;100248.47;4428428;31;681175;-76
2021/06/20 11:58:03;;;;;;;9.02;6.60;;;;;;;31.81;23.40;100248.47;4454813;32;20120;-73
2021/06/20 12:00:30;;;;;;;11.57;6.50;;;;;;;30.67;24.47;100239.16;4447085;32;20106;-75